createdAt,value
2017-11-30T00:01:11.855Z,1.11
2017-11-30T00:01:57.200Z,1.22
2017-11-30T00:02:57.230Z,1.26
2017-11-30T00:03:57.247Z,1.11
2017-11-30T00:04:57.254Z,1.12
2017-11-30T00:05:57.268Z,1.16
2017-11-30T00:06:57.267Z,1.02
2017-11-30T00:07:57.278Z,1
2017-11-30T00:08:57.295Z,0.94
2017-11-30T00:09:57.308Z,0.9
2017-11-30T00:10:57.312Z,0.83
2017-11-30T00:11:57.350Z,0.84
2017-11-30T00:12:57.364Z,0.75
2017-11-30T00:14:57.357Z,0.65
2017-11-30T00:16:12.056Z,0.6
2017-11-30T00:16:57.384Z,0.68
2017-11-30T00:17:57.445Z,0.7
2017-11-30T00:18:57.420Z,0.68
2017-11-30T00:20:12.097Z,0.61
2017-11-30T00:20:57.186Z,0.68
2017-11-30T00:21:57.469Z,0.68
2017-11-30T00:22:57.223Z,0.58
2017-11-30T00:23:57.500Z,0.61
2017-11-30T00:24:57.492Z,0.62
2017-11-30T00:25:57.533Z,0.49
2017-11-30T00:26:57.260Z,0.57
2017-11-30T00:28:57.547Z,0.57
2017-11-30T00:29:57.321Z,0.47
2017-11-30T00:31:57.603Z,0.46
2017-11-30T00:32:57.639Z,0.44
2017-11-30T00:33:57.353Z,0.46
2017-11-30T00:34:57.627Z,0.39
2017-11-30T00:35:57.645Z,0.46
2017-11-30T00:36:57.502Z,0.55
2017-11-30T00:37:57.694Z,0.57
2017-11-30T00:38:57.674Z,0.57
2017-11-30T00:40:57.730Z,0.62
2017-11-30T00:41:57.762Z,0.62
2017-11-30T00:42:57.772Z,0.69
2017-11-30T00:43:57.772Z,0.69
2017-11-30T00:44:57.785Z,0.58
2017-11-30T00:48:12.470Z,0.42
2017-11-30T00:48:57.851Z,0.53
2017-11-30T00:49:57.852Z,0.36
2017-11-30T00:50:57.871Z,0.44
2017-11-30T00:52:12.533Z,0.41
2017-11-30T00:52:57.891Z,0.49
2017-11-30T00:53:57.881Z,0.55
2017-11-30T00:54:57.900Z,0.49
2017-11-30T00:55:57.973Z,0.47
2017-11-30T00:56:57.930Z,0.38
2017-11-30T00:58:57.991Z,0.44
2017-11-30T00:59:57.994Z,0.44
2017-11-30T01:00:57.720Z,0.5
2017-11-30T01:01:57.986Z,0.51
2017-11-30T01:02:58.017Z,0.51
2017-11-30T01:04:12.705Z,0.53
2017-11-30T01:05:12.692Z,0.57
2017-11-30T01:05:58.067Z,0.57
2017-11-30T01:06:58.070Z,0.68
2017-11-30T01:07:58.120Z,0.6
2017-11-30T01:08:58.131Z,0.72
2017-11-30T01:09:58.128Z,0.62
2017-11-30T01:10:58.158Z,0.58
2017-11-30T01:12:12.811Z,0.47
2017-11-30T01:13:12.819Z,0.36
2017-11-30T01:13:58.194Z,0.46
2017-11-30T01:14:58.176Z,0.5
2017-11-30T01:16:58.204Z,0.61
2017-11-30T01:17:58.244Z,0.69
2017-11-30T01:18:58.246Z,0.7
2017-11-30T01:20:12.915Z,0.68
2017-11-30T01:20:58.260Z,0.66
2017-11-30T01:21:58.342Z,0.7
2017-11-30T01:22:58.267Z,0.73
2017-11-30T01:23:58.317Z,0.78
2017-11-30T01:24:58.334Z,0.86
2017-11-30T01:25:58.306Z,0.79
2017-11-30T01:26:58.346Z,0.9
2017-11-30T01:27:58.371Z,0.91
2017-11-30T01:28:58.401Z,0.84
2017-11-30T01:29:58.381Z,0.86
2017-11-30T01:30:58.388Z,0.87
2017-11-30T01:31:58.389Z,0.94
2017-11-30T01:32:58.418Z,0.91
2017-11-30T01:33:58.436Z,0.96
2017-11-30T01:34:58.189Z,0.98
2017-11-30T01:36:13.105Z,0.86
2017-11-30T01:37:13.137Z,0.86
2017-11-30T01:38:58.505Z,0.8
2017-11-30T01:39:58.516Z,0.75
2017-11-30T01:40:58.544Z,0.69
2017-11-30T01:41:58.561Z,0.66
2017-11-30T01:42:58.544Z,0.66
2017-11-30T01:43:58.552Z,0.61
2017-11-30T01:44:58.606Z,0.5
2017-11-30T01:45:58.604Z,0.38
2017-11-30T01:47:13.273Z,0.39
2017-11-30T01:47:58.649Z,0.35
2017-11-30T01:48:58.616Z,0.24
2017-11-30T01:49:58.658Z,0.31
2017-11-30T01:51:13.320Z,0.26
2017-11-30T01:51:58.693Z,0.26
2017-11-30T01:52:58.711Z,0.28
2017-11-30T01:53:58.713Z,0.29
2017-11-30T01:54:58.735Z,0.29
2017-11-30T01:55:58.732Z,0.31
2017-11-30T01:56:58.748Z,0.33
2017-11-30T01:57:58.488Z,0.31
2017-11-30T01:58:58.744Z,0.39
2017-11-30T01:59:58.804Z,0.47
2017-11-30T02:00:58.815Z,0.53
2017-11-30T02:01:58.846Z,0.53
2017-11-30T02:02:58.843Z,0.44
2017-11-30T02:03:58.828Z,0.46
2017-11-30T02:05:13.520Z,0.57
2017-11-30T02:05:58.622Z,0.51
2017-11-30T02:06:58.889Z,0.51
2017-11-30T02:08:13.530Z,0.47
2017-11-30T02:08:58.906Z,0.47
2017-11-30T02:09:58.933Z,0.53
2017-11-30T02:10:58.976Z,0.57
2017-11-30T02:11:58.969Z,0.66
2017-11-30T02:12:58.962Z,0.62
2017-11-30T02:13:58.959Z,0.65
2017-11-30T02:14:59.001Z,0.75
2017-11-30T02:15:58.990Z,0.76
2017-11-30T02:16:59.039Z,0.79
2017-11-30T02:17:59.040Z,0.84
2017-11-30T02:18:59.043Z,0.69
2017-11-30T02:19:59.076Z,0.72
2017-11-30T02:20:59.067Z,0.72
2017-11-30T02:21:59.059Z,0.69
2017-11-30T02:23:13.727Z,0.7
2017-11-30T02:24:59.113Z,0.6
2017-11-30T02:26:13.537Z,0.6
2017-11-30T02:26:59.163Z,0.6
2017-11-30T02:27:59.178Z,0.61
2017-11-30T02:28:59.167Z,0.65
2017-11-30T02:31:13.870Z,0.78
2017-11-30T02:31:59.228Z,0.7
2017-11-30T02:33:13.896Z,0.84
2017-11-30T02:33:59.222Z,0.87
2017-11-30T02:34:58.977Z,0.86
2017-11-30T02:36:59.276Z,0.83
2017-11-30T02:37:59.317Z,0.87
2017-11-30T02:39:13.976Z,0.97
2017-11-30T02:39:59.327Z,0.91
2017-11-30T02:40:59.371Z,0.98
2017-11-30T02:41:59.360Z,0.91
2017-11-30T02:42:59.371Z,0.94
2017-11-30T02:43:59.369Z,0.96
2017-11-30T02:44:59.412Z,1.04
2017-11-30T02:45:59.378Z,1.04
2017-11-30T02:46:59.445Z,1.08
2017-11-30T02:47:59.423Z,1.14
2017-11-30T02:48:59.445Z,1.06
2017-11-30T02:49:59.440Z,1.24
2017-11-30T02:50:58.947Z,1.09
2017-11-30T02:51:59.499Z,1.04
2017-11-30T02:52:59.498Z,1.09
2017-11-30T02:53:59.486Z,1.12
2017-11-30T02:55:14.169Z,1.12
2017-11-30T02:55:59.528Z,1.22
2017-11-30T02:56:59.603Z,1.3
2017-11-30T02:57:59.573Z,1.16
2017-11-30T02:58:59.548Z,1.29
2017-11-30T02:59:59.591Z,1.23
2017-11-30T03:00:59.597Z,1.34
2017-11-30T03:01:59.594Z,1.37
2017-11-30T03:02:59.649Z,1.36
2017-11-30T03:04:14.308Z,1.32
2017-11-30T03:04:59.639Z,1.33
2017-11-30T03:05:59.680Z,1.45
2017-11-30T03:06:59.705Z,1.4
2017-11-30T03:07:59.704Z,1.47
2017-11-30T03:08:59.722Z,1.44
2017-11-30T03:09:59.737Z,1.4
2017-11-30T03:11:14.401Z,1.4
2017-11-30T03:11:59.754Z,1.4
2017-11-30T03:12:59.802Z,1.41
2017-11-30T03:13:59.751Z,1.44
2017-11-30T03:14:59.803Z,1.47
2017-11-30T03:15:59.798Z,1.41
2017-11-30T03:16:59.820Z,1.45
2017-11-30T03:17:59.811Z,1.4
2017-11-30T03:18:59.825Z,1.48
2017-11-30T03:19:59.876Z,1.36
2017-11-30T03:20:59.891Z,1.37
2017-11-30T03:21:59.875Z,1.45
2017-11-30T03:22:59.890Z,1.45
2017-11-30T03:23:59.902Z,1.4
2017-11-30T03:25:14.592Z,1.42
2017-11-30T03:26:14.659Z,1.58
2017-11-30T03:26:59.947Z,1.45
2017-11-30T03:27:59.977Z,1.52
2017-11-30T03:28:59.955Z,1.45
2017-11-30T03:30:00.006Z,1.5
2017-11-30T03:31:00.024Z,1.45
2017-11-30T03:32:00.020Z,1.51
2017-11-30T03:33:00.036Z,1.51
2017-11-30T03:34:00.043Z,1.58
2017-11-30T03:35:00.088Z,1.59
2017-11-30T03:36:00.067Z,1.58
2017-11-30T03:37:00.090Z,1.62
2017-11-30T03:38:00.095Z,1.73
2017-11-30T03:39:00.103Z,1.66
2017-11-30T03:40:00.111Z,1.77
2017-11-30T03:41:00.126Z,1.69
2017-11-30T03:42:00.161Z,1.73
2017-11-30T03:43:00.171Z,1.68
2017-11-30T03:44:00.185Z,1.69
2017-11-30T03:45:00.192Z,1.77
2017-11-30T03:46:00.215Z,1.72
2017-11-30T03:47:00.252Z,1.73
2017-11-30T03:48:00.234Z,1.66
2017-11-30T03:49:00.240Z,1.7
2017-11-30T03:50:00.247Z,1.68
2017-11-30T03:51:00.258Z,1.65
2017-11-30T03:52:00.294Z,1.66
2017-11-30T03:53:00.320Z,1.65
2017-11-30T03:54:00.321Z,1.66
2017-11-30T03:55:00.333Z,1.66
2017-11-30T03:56:00.078Z,1.73
2017-11-30T03:57:00.381Z,1.7
2017-11-30T03:58:15.028Z,1.68
2017-11-30T03:59:00.396Z,1.79
2017-11-30T04:00:00.411Z,1.73
2017-11-30T04:01:00.431Z,1.79
2017-11-30T04:02:00.408Z,1.83
2017-11-30T04:03:00.433Z,1.73
2017-11-30T04:04:00.458Z,1.79
2017-11-30T04:05:00.476Z,1.68
2017-11-30T04:07:00.480Z,1.7
2017-11-30T04:08:00.507Z,1.65
2017-11-30T04:10:00.546Z,1.76
2017-11-30T04:11:00.559Z,1.68
2017-11-30T04:12:00.570Z,1.7
2017-11-30T04:13:00.589Z,1.77
2017-11-30T04:14:15.267Z,1.77
2017-11-30T04:15:00.610Z,1.73
2017-11-30T04:16:00.642Z,1.72
2017-11-30T04:17:00.627Z,1.68
2017-11-30T04:18:00.667Z,1.76
2017-11-30T04:19:15.308Z,1.77
2017-11-30T04:20:00.724Z,1.79
2017-11-30T04:21:00.711Z,1.73
2017-11-30T04:22:00.695Z,1.81
2017-11-30T04:23:00.733Z,1.84
2017-11-30T04:24:00.729Z,1.88
2017-11-30T04:25:00.775Z,1.83
2017-11-30T04:27:00.768Z,1.87
2017-11-30T04:28:00.788Z,1.93
2017-11-30T04:29:00.823Z,1.93
2017-11-30T04:30:15.487Z,1.91
2017-11-30T04:31:00.822Z,1.87
2017-11-30T04:32:15.522Z,2
2017-11-30T04:33:00.593Z,1.87
2017-11-30T04:34:00.856Z,1.88
2017-11-30T04:35:00.878Z,1.84
2017-11-30T04:36:00.898Z,1.91
2017-11-30T04:37:00.917Z,1.9
2017-11-30T04:38:00.945Z,1.9
2017-11-30T04:39:00.987Z,1.86
2017-11-30T04:40:00.981Z,1.95
2017-11-30T04:41:00.951Z,1.88
2017-11-30T04:42:00.987Z,1.86
2017-11-30T04:43:00.998Z,1.84
2017-11-30T04:44:01.016Z,1.77
2017-11-30T04:46:15.702Z,1.66
2017-11-30T04:47:01.071Z,1.63
2017-11-30T04:48:01.073Z,1.63
2017-11-30T04:49:01.103Z,1.65
2017-11-30T04:50:15.733Z,1.65
2017-11-30T04:51:01.131Z,1.7
2017-11-30T04:52:01.123Z,1.68
2017-11-30T04:53:01.163Z,1.62
2017-11-30T04:54:01.169Z,1.55
2017-11-30T04:55:01.192Z,1.63
2017-11-30T04:56:01.179Z,1.58
2017-11-30T04:57:01.198Z,1.63
2017-11-30T04:58:01.196Z,1.58
2017-11-30T04:59:01.223Z,1.62
2017-11-30T05:00:01.241Z,1.63
2017-11-30T05:01:15.638Z,1.6
2017-11-30T05:02:01.261Z,1.63
2017-11-30T05:03:15.926Z,1.42
2017-11-30T05:04:01.285Z,1.45
2017-11-30T05:05:01.322Z,1.42
2017-11-30T05:06:01.330Z,1.47
2017-11-30T05:07:01.350Z,1.54
2017-11-30T05:08:01.322Z,1.62
2017-11-30T05:09:01.089Z,1.63
2017-11-30T05:10:01.374Z,1.54
2017-11-30T05:11:01.377Z,1.62
2017-11-30T05:12:16.053Z,1.62
2017-11-30T05:15:01.158Z,1.54
2017-11-30T05:16:01.455Z,1.65
2017-11-30T05:18:01.483Z,1.6
2017-11-30T05:19:01.481Z,1.6
2017-11-30T05:20:01.532Z,1.58
2017-11-30T05:21:01.524Z,1.51
2017-11-30T05:22:01.541Z,1.51
2017-11-30T05:23:01.555Z,1.58
2017-11-30T05:24:01.583Z,1.6
2017-11-30T05:25:01.578Z,1.63
2017-11-30T05:26:01.578Z,1.62
2017-11-30T05:27:01.590Z,1.52
2017-11-30T05:28:01.643Z,1.58
2017-11-30T05:29:01.638Z,1.6
2017-11-30T05:30:16.303Z,1.51
2017-11-30T05:31:01.662Z,1.55
2017-11-30T05:32:01.672Z,1.62
2017-11-30T05:33:16.365Z,1.6
2017-11-30T05:34:01.703Z,1.59
2017-11-30T05:35:01.742Z,1.63
2017-11-30T05:36:01.474Z,1.73
2017-11-30T05:37:01.751Z,1.77
2017-11-30T05:38:01.765Z,1.76
2017-11-30T05:39:01.747Z,1.7
2017-11-30T05:40:01.913Z,1.7
2017-11-30T05:41:01.808Z,1.65
2017-11-30T05:42:01.567Z,1.79
2017-11-30T05:43:01.838Z,1.63
2017-11-30T05:44:01.823Z,1.68
2017-11-30T05:45:01.870Z,1.6
2017-11-30T05:46:01.870Z,1.76
2017-11-30T05:47:01.623Z,1.72
2017-11-30T05:48:01.890Z,1.79
2017-11-30T05:49:16.559Z,1.79
2017-11-30T05:50:01.932Z,1.86
2017-11-30T05:51:01.946Z,1.76
2017-11-30T05:52:16.600Z,1.81
2017-11-30T05:53:01.964Z,1.77
2017-11-30T05:54:01.978Z,1.7
2017-11-30T05:55:01.998Z,1.72
2017-11-30T05:56:02.015Z,1.76
2017-11-30T05:57:02.013Z,1.77
2017-11-30T05:58:02.058Z,1.68
2017-11-30T05:59:02.067Z,1.76
2017-11-30T06:00:16.732Z,1.65
2017-11-30T06:01:01.816Z,1.77
2017-11-30T06:02:02.107Z,1.76
2017-11-30T06:03:01.844Z,1.7
2017-11-30T06:04:02.191Z,1.73
2017-11-30T06:05:16.800Z,1.84
2017-11-30T06:06:02.130Z,1.81
2017-11-30T06:07:02.158Z,1.76
2017-11-30T06:08:02.200Z,1.8
2017-11-30T06:09:02.209Z,1.84
2017-11-30T06:11:02.214Z,1.83
2017-11-30T06:12:02.210Z,1.86
2017-11-30T06:13:01.980Z,1.81
2017-11-30T06:14:16.927Z,1.9
2017-11-30T06:15:02.277Z,1.76
2017-11-30T06:16:02.265Z,1.76
2017-11-30T06:17:02.329Z,1.84
2017-11-30T06:19:02.338Z,1.77
2017-11-30T06:20:02.352Z,1.73
2017-11-30T06:21:17.014Z,1.76
2017-11-30T06:22:02.389Z,1.77
2017-11-30T06:23:02.368Z,1.77
2017-11-30T06:24:02.433Z,1.86
2017-11-30T06:25:02.408Z,1.86
2017-11-30T06:26:02.445Z,1.88
2017-11-30T06:27:02.440Z,1.84
2017-11-30T06:28:02.446Z,1.9
2017-11-30T06:29:02.466Z,1.88
2017-11-30T06:30:02.518Z,1.93
2017-11-30T06:31:02.504Z,1.99
2017-11-30T06:32:02.507Z,1.95
2017-11-30T06:33:02.527Z,1.95
2017-11-30T06:34:02.537Z,2.02
2017-11-30T06:35:17.220Z,2.06
2017-11-30T06:36:17.220Z,2.02
2017-11-30T06:37:02.296Z,1.99
2017-11-30T06:38:02.615Z,2.09
2017-11-30T06:39:02.588Z,2.14
2017-11-30T06:40:02.602Z,2.07
2017-11-30T06:41:02.649Z,2.09
2017-11-30T06:42:02.623Z,2.17
2017-11-30T06:43:02.660Z,2.18
2017-11-30T06:44:02.658Z,2.09
2017-11-30T06:45:02.720Z,2.14
2017-11-30T06:46:02.678Z,2.12
2017-11-30T06:48:02.738Z,2.12
2017-11-30T06:49:02.723Z,2.18
2017-11-30T06:51:02.775Z,2.27
2017-11-30T06:52:02.803Z,2.35
2017-11-30T06:53:02.800Z,2.3
2017-11-30T06:54:02.814Z,2.3
2017-11-30T06:55:02.850Z,2.35
2017-11-30T06:57:02.862Z,2.35
2017-11-30T06:58:02.884Z,2.35
2017-11-30T06:59:02.908Z,2.25
2017-11-30T07:00:02.909Z,2.27
2017-11-30T07:01:02.887Z,2.38
2017-11-30T07:02:02.961Z,2.35
2017-11-30T07:03:02.916Z,2.34
2017-11-30T07:04:02.982Z,2.3
2017-11-30T07:06:03.021Z,2.34
2017-11-30T07:07:03.027Z,2.34
2017-11-30T07:08:17.656Z,2.31
2017-11-30T07:09:03.028Z,2.28
2017-11-30T07:10:03.035Z,2.42
2017-11-30T07:11:03.052Z,2.39
2017-11-30T07:12:03.070Z,2.36
2017-11-30T07:13:03.116Z,2.39
2017-11-30T07:14:03.123Z,2.43
2017-11-30T07:15:17.790Z,2.35
2017-11-30T07:16:17.846Z,2.36
2017-11-30T07:18:03.178Z,2.41
2017-11-30T07:19:03.181Z,2.43
2017-11-30T07:20:03.173Z,2.49
2017-11-30T07:21:03.181Z,2.46
2017-11-30T07:22:03.312Z,2.49
2017-11-30T07:23:17.893Z,2.45
2017-11-30T07:24:17.884Z,2.42
2017-11-30T07:25:03.312Z,2.49
2017-11-30T07:26:03.265Z,2.52
2017-11-30T07:27:17.945Z,2.53
2017-11-30T07:28:03.313Z,2.48
2017-11-30T07:29:03.321Z,2.46
2017-11-30T07:30:03.336Z,2.42
2017-11-30T07:31:18.008Z,2.34
2017-11-30T07:32:03.372Z,2.45
2017-11-30T07:33:03.335Z,2.45
2017-11-30T07:35:03.420Z,2.38
2017-11-30T07:36:03.410Z,2.42
2017-11-30T07:37:03.430Z,2.41
2017-11-30T07:38:03.411Z,2.38
2017-11-30T07:39:03.465Z,2.35
2017-11-30T07:40:18.109Z,2.49
2017-11-30T07:41:18.138Z,2.53
2017-11-30T07:43:03.499Z,2.52
2017-11-30T07:44:03.543Z,2.48
2017-11-30T07:45:03.548Z,2.43
2017-11-30T07:46:03.562Z,2.49
2017-11-30T07:49:03.582Z,2.36
2017-11-30T07:50:03.348Z,2.42
2017-11-30T07:52:03.633Z,2.45
2017-11-30T07:53:18.312Z,2.48
2017-11-30T07:54:03.643Z,2.35
2017-11-30T07:56:18.357Z,2.48
2017-11-30T07:57:03.718Z,2.45
2017-11-30T07:58:03.717Z,2.53
2017-11-30T07:59:03.725Z,2.52
2017-11-30T08:00:03.861Z,2.52
2017-11-30T08:01:03.760Z,2.63
2017-11-30T08:02:03.794Z,2.56
2017-11-30T08:03:03.843Z,2.61
2017-11-30T08:04:03.567Z,2.59
2017-11-30T08:06:18.599Z,2.63
2017-11-30T08:07:03.850Z,2.61
2017-11-30T08:08:03.880Z,2.67
2017-11-30T08:09:03.888Z,2.71
2017-11-30T08:10:03.352Z,2.69
2017-11-30T08:11:18.575Z,2.78
2017-11-30T08:12:03.980Z,2.71
2017-11-30T08:13:03.932Z,2.79
2017-11-30T08:14:03.684Z,2.77
2017-11-30T08:15:03.966Z,2.85
2017-11-30T08:16:03.978Z,2.87
2017-11-30T08:17:03.993Z,2.89
2017-11-30T08:18:03.994Z,2.97
2017-11-30T08:19:03.751Z,3.02
2017-11-30T08:20:04.016Z,3.05
2017-11-30T08:21:04.067Z,3.02
2017-11-30T08:22:04.081Z,3.06
2017-11-30T08:23:03.799Z,3
2017-11-30T08:24:04.088Z,2.96
2017-11-30T08:25:04.095Z,2.95
2017-11-30T08:26:04.116Z,2.95
2017-11-30T08:28:04.167Z,2.92
2017-11-30T08:29:04.145Z,2.97
2017-11-30T08:30:04.159Z,2.93
2017-11-30T08:31:04.220Z,2.92
2017-11-30T08:32:04.201Z,3
2017-11-30T08:34:04.240Z,2.93
2017-11-30T08:35:04.261Z,2.97
2017-11-30T08:37:04.286Z,2.9
2017-11-30T08:38:04.299Z,2.96
2017-11-30T08:39:04.339Z,2.89
2017-11-30T08:40:04.336Z,2.97
2017-11-30T08:41:04.344Z,2.87
2017-11-30T08:42:19.033Z,2.95
2017-11-30T08:44:04.379Z,2.96
2017-11-30T08:45:04.494Z,3.06
2017-11-30T08:46:04.424Z,3.1
2017-11-30T08:47:04.438Z,3.14
2017-11-30T08:48:03.911Z,3.13
2017-11-30T08:49:19.134Z,3.2
2017-11-30T08:51:04.528Z,3.2
2017-11-30T08:52:19.193Z,3.11
2017-11-30T08:53:04.530Z,3.2
2017-11-30T08:54:04.557Z,3.14
2017-11-30T08:55:19.231Z,3.21
2017-11-30T08:56:04.572Z,3.17
2017-11-30T08:57:04.600Z,3.18
2017-11-30T08:58:04.601Z,3.23
2017-11-30T08:59:19.268Z,3.29
2017-11-30T09:00:04.365Z,3.32
2017-11-30T09:01:04.630Z,3.39
2017-11-30T09:02:04.658Z,3.48
2017-11-30T09:03:04.400Z,3.43
2017-11-30T09:04:04.715Z,3.47
2017-11-30T09:06:04.701Z,3.43
2017-11-30T09:07:04.767Z,3.47
2017-11-30T09:08:04.750Z,3.47
2017-11-30T09:09:04.252Z,3.52
2017-11-30T09:10:04.792Z,3.48
2017-11-30T09:11:04.776Z,3.47
2017-11-30T09:12:04.839Z,3.5
2017-11-30T09:13:04.849Z,3.57
2017-11-30T09:14:04.832Z,3.6
2017-11-30T09:15:19.539Z,3.62
2017-11-30T09:16:04.877Z,3.73
2017-11-30T09:17:04.633Z,3.7
2017-11-30T09:18:04.940Z,3.73
2017-11-30T09:19:04.971Z,3.83
2017-11-30T09:20:04.656Z,3.84
2017-11-30T09:21:04.985Z,3.83
2017-11-30T09:22:04.977Z,3.8
2017-11-30T09:23:04.726Z,3.9
2017-11-30T09:24:04.986Z,4.02
2017-11-30T09:25:05.043Z,4.08
2017-11-30T09:26:04.780Z,4.15
2017-11-30T09:27:05.077Z,4.22
2017-11-30T09:28:05.075Z,4.24
2017-11-30T09:30:05.108Z,4.37
2017-11-30T09:31:19.788Z,4.45
2017-11-30T09:32:05.116Z,4.54
2017-11-30T09:33:05.177Z,4.51
2017-11-30T09:34:05.178Z,4.55
2017-11-30T09:35:04.918Z,4.63
2017-11-30T09:36:05.197Z,4.58
2017-11-30T09:37:05.252Z,4.6
2017-11-30T09:38:05.251Z,4.55
2017-11-30T09:39:05.262Z,4.48
2017-11-30T09:40:05.256Z,4.48
2017-11-30T09:41:05.262Z,4.5
2017-11-30T09:42:05.314Z,4.62
2017-11-30T09:44:05.319Z,4.52
2017-11-30T09:45:05.090Z,4.55
2017-11-30T09:46:19.997Z,4.48
2017-11-30T09:47:05.391Z,4.54
2017-11-30T09:48:05.356Z,4.59
2017-11-30T09:49:05.389Z,4.62
2017-11-30T09:50:05.456Z,4.63
2017-11-30T09:51:05.164Z,4.66
2017-11-30T09:52:05.452Z,4.73
2017-11-30T09:53:05.466Z,4.77
2017-11-30T09:54:05.217Z,4.78
2017-11-30T09:55:05.222Z,4.7
2017-11-30T09:56:05.518Z,4.85
2017-11-30T09:57:05.516Z,4.72
2017-11-30T09:58:05.572Z,4.78
2017-11-30T09:59:05.559Z,4.7
2017-11-30T10:00:05.573Z,4.77
2017-11-30T10:01:05.693Z,4.75
2017-11-30T10:02:05.610Z,4.86
2017-11-30T10:03:05.645Z,4.88
2017-11-30T10:04:05.642Z,4.84
2017-11-30T10:05:05.660Z,4.86
2017-11-30T10:06:05.734Z,4.85
2017-11-30T10:07:05.692Z,4.78
2017-11-30T10:08:05.711Z,4.78
2017-11-30T10:09:05.487Z,4.75
2017-11-30T10:10:05.468Z,4.75
2017-11-30T10:11:05.736Z,4.72
2017-11-30T10:12:05.787Z,4.77
2017-11-30T10:13:05.805Z,4.7
2017-11-30T10:14:05.780Z,4.75
2017-11-30T10:15:20.494Z,4.67
2017-11-30T10:16:05.850Z,4.75
2017-11-30T10:17:05.850Z,4.73
2017-11-30T10:18:20.541Z,4.84
2017-11-30T10:19:05.902Z,4.75
2017-11-30T10:20:05.908Z,4.7
2017-11-30T10:21:05.932Z,4.78
2017-11-30T10:22:05.944Z,4.85
2017-11-30T10:23:05.948Z,4.99
2017-11-30T10:24:05.967Z,4.92
2017-11-30T10:25:05.995Z,5.03
2017-11-30T10:26:06.012Z,5.03
2017-11-30T10:27:06.021Z,5.18
2017-11-30T10:28:06.008Z,5.21
2017-11-30T10:29:06.055Z,5.21
2017-11-30T10:30:05.543Z,5.27
2017-11-30T10:31:06.080Z,5.24
2017-11-30T10:32:20.767Z,5.24
2017-11-30T10:33:06.092Z,5.28
2017-11-30T10:34:20.790Z,5.28
2017-11-30T10:35:06.152Z,5.31
2017-11-30T10:36:06.165Z,5.25
2017-11-30T10:37:06.185Z,5.3
2017-11-30T10:38:06.192Z,5.25
2017-11-30T10:39:06.205Z,5.33
2017-11-30T10:40:05.958Z,5.3
2017-11-30T10:41:20.893Z,5.38
2017-11-30T10:43:06.326Z,5.53
2017-11-30T10:44:06.303Z,5.49
2017-11-30T10:45:06.316Z,5.49
2017-11-30T10:46:06.339Z,5.48
2017-11-30T10:47:06.375Z,5.48
2017-11-30T10:48:06.337Z,5.65
2017-11-30T10:49:06.378Z,5.56
2017-11-30T10:50:21.053Z,5.63
2017-11-30T10:51:06.406Z,5.75
2017-11-30T10:52:06.157Z,5.67
2017-11-30T10:53:06.445Z,5.81
2017-11-30T10:54:06.458Z,5.85
2017-11-30T10:55:06.483Z,5.86
2017-11-30T10:56:06.495Z,5.86
2017-11-30T10:57:06.513Z,5.85
2017-11-30T10:58:06.521Z,5.9
2017-11-30T10:59:07.015Z,5.93
2017-11-30T11:00:06.546Z,6.03
2017-11-30T11:02:06.338Z,6.03
2017-11-30T11:03:06.642Z,6.06
2017-11-30T11:04:21.297Z,6.14
2017-11-30T11:05:06.625Z,6.08
2017-11-30T11:06:21.321Z,6.06
2017-11-30T11:07:06.668Z,6.06
2017-11-30T11:08:06.686Z,5.94
2017-11-30T11:09:06.735Z,5.96
2017-11-30T11:10:06.704Z,5.9
2017-11-30T11:11:06.746Z,5.91
2017-11-30T11:12:06.753Z,5.79
2017-11-30T11:13:06.775Z,5.82
2017-11-30T11:14:06.766Z,5.86
2017-11-30T11:15:06.815Z,5.85
2017-11-30T11:16:21.229Z,5.94
2017-11-30T11:17:06.900Z,5.89
2017-11-30T11:18:06.613Z,5.94
2017-11-30T11:19:06.874Z,5.96
2017-11-30T11:20:06.909Z,6.01
2017-11-30T11:21:21.565Z,5.99
2017-11-30T11:22:06.690Z,6
2017-11-30T11:23:06.956Z,5.94
2017-11-30T11:24:06.958Z,6.08
2017-11-30T11:25:06.999Z,6.01
2017-11-30T11:26:06.994Z,6.08
2017-11-30T11:27:07.033Z,6
2017-11-30T11:28:07.028Z,6.06
2017-11-30T11:29:06.789Z,6.03
2017-11-30T11:30:07.084Z,5.94
2017-11-30T11:31:06.819Z,5.94
2017-11-30T11:32:07.126Z,5.85
2017-11-30T11:33:07.125Z,5.93
2017-11-30T11:34:07.147Z,5.93
2017-11-30T11:35:07.258Z,5.81
2017-11-30T11:36:07.154Z,5.82
2017-11-30T11:37:06.918Z,5.78
2017-11-30T11:38:07.215Z,5.74
2017-11-30T11:39:07.188Z,5.68
2017-11-30T11:40:07.221Z,5.72
2017-11-30T11:43:07.292Z,5.54
2017-11-30T11:44:07.280Z,5.53
2017-11-30T11:45:07.294Z,5.53
2017-11-30T11:46:07.358Z,5.54
2017-11-30T11:47:07.326Z,5.51
2017-11-30T11:48:07.350Z,5.6
2017-11-30T11:49:22.049Z,5.65
2017-11-30T11:50:07.376Z,5.64
2017-11-30T11:51:07.396Z,5.6
2017-11-30T11:53:22.109Z,5.58
2017-11-30T11:54:07.444Z,5.65
2017-11-30T11:55:07.450Z,5.76
2017-11-30T11:56:07.221Z,5.68
2017-11-30T11:57:07.485Z,5.78
2017-11-30T11:58:07.547Z,5.76
2017-11-30T11:59:07.557Z,5.81
2017-11-30T12:00:22.236Z,5.74
2017-11-30T12:01:07.581Z,5.81
2017-11-30T12:02:07.595Z,5.74
2017-11-30T12:03:07.610Z,5.67
2017-11-30T12:04:07.625Z,5.81
2017-11-30T12:05:07.652Z,5.81
2017-11-30T12:06:07.648Z,5.68
2017-11-30T12:07:07.673Z,5.67
2017-11-30T12:08:07.679Z,5.74
2017-11-30T12:09:22.370Z,5.68
2017-11-30T12:10:07.444Z,5.78
2017-11-30T12:11:07.730Z,5.76
2017-11-30T12:13:07.756Z,5.64
2017-11-30T12:14:22.443Z,5.71
2017-11-30T12:15:07.805Z,5.85
2017-11-30T12:16:07.846Z,5.81
2017-11-30T12:17:07.857Z,5.76
2017-11-30T12:18:07.869Z,5.67
2017-11-30T12:19:07.707Z,5.71
2017-11-30T12:20:07.633Z,5.79
2017-11-30T12:22:07.909Z,5.72
2017-11-30T12:23:07.945Z,5.79
2017-11-30T12:24:07.953Z,5.75
2017-11-30T12:25:22.620Z,5.71
2017-11-30T12:27:07.995Z,5.65
2017-11-30T12:28:07.994Z,5.72
2017-11-30T12:29:08.058Z,5.61
2017-11-30T12:30:07.784Z,5.65
2017-11-30T12:31:08.067Z,5.68
2017-11-30T12:32:07.828Z,5.63
2017-11-30T12:33:08.100Z,5.65
2017-11-30T12:34:08.120Z,5.65
2017-11-30T12:35:08.125Z,5.6
2017-11-30T12:37:22.828Z,5.61
2017-11-30T12:38:08.184Z,5.68
2017-11-30T12:39:08.183Z,5.68
2017-11-30T12:40:08.225Z,5.71
2017-11-30T12:41:22.896Z,5.76
2017-11-30T12:42:07.997Z,5.71
2017-11-30T12:43:08.259Z,5.81
2017-11-30T12:44:08.278Z,5.93
2017-11-30T12:46:08.080Z,5.93
2017-11-30T12:47:08.364Z,6.01
2017-11-30T12:48:22.747Z,6.15
2017-11-30T12:50:23.038Z,6.22
2017-11-30T12:51:08.397Z,6.18
2017-11-30T12:52:08.148Z,6.37
2017-11-30T12:53:08.439Z,6.3
2017-11-30T12:54:08.451Z,6.18
2017-11-30T12:55:08.228Z,6.15
2017-11-30T12:56:23.137Z,6.14
2017-11-30T12:59:08.500Z,6.06
2017-11-30T13:00:08.559Z,6.11
2017-11-30T13:01:08.591Z,6.12
2017-11-30T13:02:08.309Z,6.09
2017-11-30T13:03:08.352Z,6
2017-11-30T13:04:08.591Z,5.94
2017-11-30T13:06:08.635Z,5.91
2017-11-30T13:07:08.654Z,5.93
2017-11-30T13:08:08.672Z,5.91
2017-11-30T13:09:23.360Z,5.86
2017-11-30T13:10:08.701Z,5.83
2017-11-30T13:12:08.717Z,5.63
2017-11-30T13:13:08.754Z,5.6
2017-11-30T13:14:08.757Z,5.65
2017-11-30T13:15:08.790Z,5.53
2017-11-30T13:16:08.826Z,5.49
2017-11-30T13:17:08.802Z,5.53
2017-11-30T13:18:08.838Z,5.53
2017-11-30T13:19:08.861Z,5.56
2017-11-30T13:21:08.889Z,5.49
2017-11-30T13:22:08.924Z,5.42
2017-11-30T13:24:08.667Z,5.28
2017-11-30T13:25:08.711Z,5.24
2017-11-30T13:26:08.717Z,5.2
2017-11-30T13:27:08.750Z,5.2
2017-11-30T13:28:23.677Z,5.21
2017-11-30T13:29:09.022Z,5.12
2017-11-30T13:30:23.719Z,5.07
2017-11-30T13:31:09.048Z,5.09
2017-11-30T13:32:09.079Z,4.94
2017-11-30T13:33:09.082Z,4.85
2017-11-30T13:34:09.106Z,4.92
2017-11-30T13:35:09.135Z,4.88
2017-11-30T13:36:08.888Z,5
2017-11-30T13:37:09.154Z,4.92
2017-11-30T13:38:09.252Z,4.82
2017-11-30T13:39:09.185Z,4.73
2017-11-30T13:40:08.961Z,4.8
2017-11-30T13:41:09.196Z,4.72
2017-11-30T13:42:09.254Z,4.7
2017-11-30T13:43:09.228Z,4.72
2017-11-30T13:44:23.940Z,4.77
2017-11-30T13:45:09.300Z,4.7
2017-11-30T13:46:09.270Z,4.66
2017-11-30T13:47:09.380Z,4.85
2017-11-30T13:48:09.081Z,4.66
2017-11-30T13:49:24.012Z,4.63
2017-11-30T13:50:24.017Z,4.73
2017-11-30T13:51:09.378Z,4.63
2017-11-30T13:52:09.128Z,4.54
2017-11-30T13:53:09.421Z,4.55
2017-11-30T13:54:09.409Z,4.51
2017-11-30T13:55:09.446Z,4.44
2017-11-30T13:56:09.480Z,4.36
2017-11-30T13:57:23.887Z,4.45
2017-11-30T13:59:09.518Z,4.33
2017-11-30T14:00:23.931Z,4.27
2017-11-30T14:02:09.306Z,4.24
2017-11-30T14:03:09.332Z,4.33
2017-11-30T14:04:09.606Z,4.22
2017-11-30T14:05:09.586Z,4.18
2017-11-30T14:06:24.273Z,4.2
2017-11-30T14:07:09.650Z,4.16
2017-11-30T14:08:09.636Z,4.02
2017-11-30T14:09:09.706Z,4.08
2017-11-30T14:10:09.440Z,4.11
2017-11-30T14:11:09.699Z,4.06
2017-11-30T14:12:09.711Z,4
2017-11-30T14:13:09.722Z,4.06
2017-11-30T14:14:09.745Z,4.04
2017-11-30T14:15:09.758Z,4.04
2017-11-30T14:16:24.438Z,4.06
2017-11-30T14:17:09.782Z,3.97
2017-11-30T14:18:09.820Z,3.88
2017-11-30T14:19:09.820Z,3.87
2017-11-30T14:20:09.838Z,3.91
2017-11-30T14:21:09.834Z,3.88
2017-11-30T14:22:09.844Z,3.91
2017-11-30T14:23:09.615Z,3.91